Minersville, Pennsylvania
Current Conditions -  °F | °C
As of 11:28 AM on Monday 24 Nov 2014 (Local Time) from KMUI Reporting Station
Scattered Clouds Scattered Clouds  
Wind Chill: 68°   Ceiling: Unl
Heat Index: 68°   Visibility: 10mi
Dew Point: 57°   Wind: 22mph
Humidity: 68%   Direction: 200°SSW
Pressure: 29.58"   Gusts: 25mph
Location:  40.69°N, 76.26°W
Report Text: KMUI 241628Z AUTO 20019G22KT 10SM SCT028 20/14 A2958 RMK AO2 $
Loading
Personal Weather Stations






























Interactive Weather Map New forecast layout! Learn more

10-Day Weather Forecast

Advertisements
Track Severe Weather on mobile